Time;durP1;ratioP1;P1;durP2;ratioP2;P2;SDS_P1;SDS_P2;PMS_P1;PMS_P2;Temp;Humidity;BMP_temperature;BMP_pressure;BME280_temperature;BME280_humidity;BME280_pressure;Samples;Min_cycle;Max_cycle;Signal;HPM_P1;HPM_P2
2022/08/20 00:01:08;;;;;;;8.27;7.57;;;;;;;;;;5026762;28;20196;-87
2022/08/20 00:03:39;;;;;;;11.57;8.23;;;;;;;;;;5037846;28;20211;-87
2022/08/20 00:06:09;;;;;;;8.27;7.47;;;;;;;;;;5030441;28;20226;-87
2022/08/20 00:08:36;;;;;;;14.40;7.70;;;;;;;;;;5031059;28;20210;-87
2022/08/20 00:11:05;;;;;;;8.17;7.33;;;;;;;;;;5030542;28;20709;-88
2022/08/20 00:13:35;;;;;;;8.27;7.57;;;;;;;;;;5032248;28;20272;-87
2022/08/20 00:16:02;;;;;;;8.60;7.80;;;;;;;;;;5030728;28;20264;-87
2022/08/20 00:18:31;;;;;;;11.03;7.73;;;;;;;;;;5038203;28;20198;-87
2022/08/20 00:20:59;;;;;;;9.03;7.43;;;;;;;;;;5030882;28;20203;-87
2022/08/20 00:23:26;;;;;;;9.60;8.77;;;;;;;;;;5031369;28;20205;-87
2022/08/20 00:25:54;;;;;;;8.10;7.17;;;;;;;;;;4998368;28;20750;-87
2022/08/20 00:28:21;;;;;;;11.13;7.07;;;;;;;;;;5030700;28;20238;-87
2022/08/20 00:30:48;;;;;;;9.60;8.60;;;;;;;;;;5030224;28;20633;-87
2022/08/20 00:33:17;;;;;;;8.70;7.77;;;;;;;;;;5029110;28;20333;-88
2022/08/20 00:35:48;;;;;;;9.37;7.00;;;;;;;;;;5030631;28;20206;-87
2022/08/20 00:38:16;;;;;;;9.30;7.73;;;;;;;;;;5030712;28;20215;-87
2022/08/20 00:40:46;;;;;;;8.73;7.93;;;;;;;;;;5030349;28;20195;-87
2022/08/20 00:43:29;;;;;;;7.13;6.53;;;;;;;;;;5013889;28;20233;-87
2022/08/20 00:45:56;;;;;;;7.97;7.33;;;;;;;;;;5031545;28;20218;-87
2022/08/20 00:48:25;;;;;;;9.50;8.57;;;;;;;;;;5028621;28;20203;-87
2022/08/20 00:50:54;;;;;;;9.30;8.40;;;;;;;;;;5031033;28;20665;-87
2022/08/20 00:53:24;;;;;;;8.37;7.60;;;;;;;;;;5030334;28;20290;-88
2022/08/20 00:55:51;;;;;;;10.33;9.17;;;;;;;;;;5031962;28;20545;-87
2022/08/20 00:58:19;;;;;;;10.07;9.00;;;;;;;;;;5014184;28;20199;-86
2022/08/20 01:00:47;;;;;;;11.57;9.23;;;;;;;;;;5030142;28;20207;-87
2022/08/20 01:03:19;;;;;;;10.33;9.50;;;;;;;;;;5032574;28;20225;-86
2022/08/20 01:05:53;;;;;;;9.17;8.37;;;;;;;;;;5033474;28;20280;-87
2022/08/20 01:08:25;;;;;;;9.37;8.40;;;;;;;;;;5032443;28;20229;-87
2022/08/20 01:11:03;;;;;;;8.67;7.90;;;;;;;;;;5032327;28;20270;-86
2022/08/20 01:13:30;;;;;;;9.30;8.60;;;;;;;;;;5033543;28;20285;-86
2022/08/20 01:15:58;;;;;;;9.20;8.40;;;;;;;;;;5013464;28;20206;-87
2022/08/20 01:18:27;;;;;;;9.57;8.43;;;;;;;;;;5026932;28;20687;-87
2022/08/20 01:20:56;;;;;;;9.20;8.50;;;;;;;;;;5033136;28;20199;-86
2022/08/20 01:23:36;;;;;;;9.33;8.37;;;;;;;;;;5032968;28;20199;-86
2022/08/20 01:26:09;;;;;;;9.20;8.30;;;;;;;;;;5034115;28;20237;-86
2022/08/20 01:28:40;;;;;;;12.03;8.60;;;;;;;;;;5033677;28;20235;-86
2022/08/20 01:31:09;;;;;;;11.40;8.77;;;;;;;;;;5033280;28;20249;-86
2022/08/20 01:33:36;;;;;;;9.17;8.20;;;;;;;;;;5034065;28;20199;-86
2022/08/20 01:36:04;;;;;;;8.37;7.53;;;;;;;;;;5034953;28;20203;-86
2022/08/20 01:38:32;;;;;;;9.20;8.30;;;;;;;;;;5034596;28;20203;-86
2022/08/20 01:41:10;;;;;;;8.27;7.57;;;;;;;;;;5049057;28;20210;-87
2022/08/20 01:43:40;;;;;;;9.70;8.70;;;;;;;;;;5033972;28;20206;-86
2022/08/20 01:46:09;;;;;;;10.20;9.20;;;;;;;;;;5031431;28;20428;-87
2022/08/20 01:48:36;;;;;;;8.47;7.87;;;;;;;;;;5034673;28;20297;-86
2022/08/20 01:51:06;;;;;;;10.80;8.27;;;;;;;;;;5032882;28;20207;-85
2022/08/20 01:53:37;;;;;;;8.97;8.17;;;;;;;;;;5034021;28;20207;-85
2022/08/20 01:56:08;;;;;;;12.20;9.37;;;;;;;;;;5031725;28;20209;-86
2022/08/20 01:58:39;;;;;;;9.87;8.03;;;;;;;;;;5032511;28;20207;-86
2022/08/20 02:01:07;;;;;;;9.30;8.40;;;;;;;;;;5034033;28;20209;-85
2022/08/20 02:03:34;;;;;;;15.03;8.00;;;;;;;;;;5032365;28;20228;-85
2022/08/20 02:06:02;;;;;;;9.27;8.53;;;;;;;;;;5033356;28;20226;-85
2022/08/20 02:08:32;;;;;;;8.97;8.07;;;;;;;;;;5033863;28;20336;-85
2022/08/20 02:10:59;;;;;;;9.47;8.23;;;;;;;;;;5033248;28;20203;-85
2022/08/20 02:13:26;;;;;;;8.23;7.43;;;;;;;;;;5031566;28;20202;-84
2022/08/20 02:15:54;;;;;;;10.13;9.03;;;;;;;;;;5015491;28;20572;-84
2022/08/20 02:18:21;;;;;;;9.37;8.40;;;;;;;;;;5031475;28;20259;-84
2022/08/20 02:20:50;;;;;;;9.43;8.10;;;;;;;;;;5031846;28;20205;-84
2022/08/20 02:23:17;;;;;;;9.57;8.43;;;;;;;;;;5033092;28;20202;-85
2022/08/20 02:25:46;;;;;;;8.40;7.70;;;;;;;;;;5031724;28;20229;-85
2022/08/20 02:28:16;;;;;;;9.50;8.60;;;;;;;;;;5031798;28;20231;-84
2022/08/20 02:34:08;;;;;;;9.80;8.97;;;;;;;;;;5033024;28;20197;-85
2022/08/20 02:36:36;;;;;;;11.60;9.40;;;;;;;;;;5032940;28;20230;-84
2022/08/20 02:39:04;;;;;;;8.80;8.10;;;;;;;;;;5032914;28;20285;-85
2022/08/20 02:41:31;;;;;;;11.67;8.43;;;;;;;;;;5032238;28;20285;-85
2022/08/20 02:43:58;;;;;;;9.90;7.93;;;;;;;;;;5031661;28;20669;-85
2022/08/20 02:46:27;;;;;;;10.67;8.00;;;;;;;;;;5032415;28;20238;-86
2022/08/20 02:48:54;;;;;;;9.63;8.67;;;;;;;;;;5033219;28;20200;-86
2022/08/20 02:51:22;;;;;;;9.57;8.67;;;;;;;;;;5030922;28;20214;-85
2022/08/20 02:53:50;;;;;;;10.00;8.77;;;;;;;;;;5048558;28;20202;-84
2022/08/20 02:56:17;;;;;;;9.83;8.90;;;;;;;;;;5032359;28;20260;-85
2022/08/20 02:58:45;;;;;;;9.33;8.43;;;;;;;;;;5031333;28;20256;-86
2022/08/20 03:01:16;;;;;;;10.93;8.97;;;;;;;;;;5030987;28;20202;-85
2022/08/20 03:03:43;;;;;;;9.63;8.73;;;;;;;;;;5014963;28;20256;-84
2022/08/20 03:06:11;;;;;;;10.93;9.07;;;;;;;;;;5032114;28;20807;-84
2022/08/20 03:08:40;;;;;;;9.80;8.90;;;;;;;;;;5032182;28;20206;-85
2022/08/20 03:11:07;;;;;;;9.60;8.37;;;;;;;;;;5032144;28;20202;-85
2022/08/20 03:13:36;;;;;;;9.63;8.67;;;;;;;;;;5032411;28;20198;-84
2022/08/20 03:16:05;;;;;;;8.53;7.80;;;;;;;;;;5032758;28;20217;-85
2022/08/20 03:18:35;;;;;;;10.43;9.30;;;;;;;;;;5032094;28;20199;-85
2022/08/20 03:21:03;;;;;;;9.40;8.47;;;;;;;;;;5030754;28;20586;-84
2022/08/20 03:23:30;;;;;;;10.33;9.37;;;;;;;;;;5032454;28;20206;-85
2022/08/20 03:25:59;;;;;;;9.97;9.07;;;;;;;;;;5031278;28;20313;-85
2022/08/20 03:28:27;;;;;;;10.57;9.57;;;;;;;;;;5032356;28;20247;-85
2022/08/20 03:30:55;;;;;;;12.13;11.03;;;;;;;;;;5031930;28;20194;-85
2022/08/20 03:33:22;;;;;;;11.57;10.57;;;;;;;;;;5032277;28;20202;-85
2022/08/20 03:35:50;;;;;;;10.67;9.63;;;;;;;;;;5031889;28;20693;-87
2022/08/20 03:38:19;;;;;;;10.97;9.87;;;;;;;;;;5031906;28;20691;-84
2022/08/20 03:40:46;;;;;;;10.27;9.37;;;;;;;;;;5032117;28;20198;-85
2022/08/20 03:43:14;;;;;;;11.23;8.90;;;;;;;;;;5030454;28;20624;-85
2022/08/20 03:45:43;;;;;;;11.70;8.57;;;;;;;;;;5030471;28;20221;-85
2022/08/20 03:48:12;;;;;;;9.17;8.37;;;;;;;;;;5031597;28;20264;-85
2022/08/20 03:50:41;;;;;;;9.80;8.83;;;;;;;;;;5030856;28;20252;-85
2022/08/20 03:53:09;;;;;;;10.80;9.83;;;;;;;;;;5030995;28;20293;-85
2022/08/20 03:55:37;;;;;;;12.20;10.83;;;;;;;;;;5030440;28;20206;-86
2022/08/20 03:58:06;;;;;;;10.63;9.67;;;;;;;;;;5032152;28;20586;-86
2022/08/20 04:00:37;;;;;;;11.33;9.50;;;;;;;;;;5030770;28;20632;-86
2022/08/20 04:03:05;;;;;;;10.57;9.67;;;;;;;;;;5032081;28;20225;-86
2022/08/20 04:05:33;;;;;;;10.17;9.20;;;;;;;;;;5030904;28;20620;-86
2022/08/20 04:08:01;;;;;;;10.23;9.33;;;;;;;;;;5031826;28;20205;-86
2022/08/20 04:10:29;;;;;;;9.53;8.53;;;;;;;;;;5032210;28;20640;-86
2022/08/20 04:12:56;;;;;;;9.63;8.70;;;;;;;;;;5030983;28;20252;-85
2022/08/20 04:15:23;;;;;;;8.90;8.10;;;;;;;;;;5031458;28;20607;-86
2022/08/20 04:17:52;;;;;;;12.30;10.67;;;;;;;;;;5028373;28;20195;-87
2022/08/20 04:20:22;;;;;;;11.37;10.27;;;;;;;;;;5032027;28;20711;-85
2022/08/20 04:22:50;;;;;;;14.27;9.77;;;;;;;;;;5046215;28;20232;-83
2022/08/20 04:25:45;;;;;;;10.30;9.37;;;;;;;;;;5031117;28;20198;-81
2022/08/20 04:28:14;;;;;;;9.70;8.73;;;;;;;;;;5011164;28;20231;-82
2022/08/20 04:30:42;;;;;;;13.23;9.13;;;;;;;;;;5011810;28;20207;-86
2022/08/20 04:33:11;;;;;;;11.57;9.77;;;;;;;;;;5020435;28;20241;-92
2022/08/20 04:35:38;;;;;;;15.77;10.10;;;;;;;;;;5031227;28;20600;-87
2022/08/20 04:38:10;;;;;;;12.10;11.03;;;;;;;;;;5037169;28;20209;-86
2022/08/20 04:40:57;;;;;;;11.00;9.93;;;;;;;;;;5036874;28;20202;-87
2022/08/20 04:43:26;;;;;;;13.23;10.37;;;;;;;;;;5034630;28;20233;-88
2022/08/20 04:45:54;;;;;;;13.93;10.80;;;;;;;;;;5034694;28;20572;-87
2022/08/20 04:48:24;;;;;;;10.33;9.33;;;;;;;;;;5034779;28;20230;-87
2022/08/20 04:50:52;;;;;;;10.80;9.83;;;;;;;;;;5033917;28;20286;-88
2022/08/20 04:53:22;;;;;;;11.57;9.90;;;;;;;;;;5035364;28;20214;-88
2022/08/20 04:55:50;;;;;;;10.50;9.60;;;;;;;;;;5036435;28;20627;-88
2022/08/20 04:58:20;;;;;;;9.47;8.57;;;;;;;;;;5055435;28;20209;-87
2022/08/20 05:00:48;;;;;;;10.20;9.20;;;;;;;;;;5036444;28;20217;-87
2022/08/20 05:03:15;;;;;;;14.63;9.73;;;;;;;;;;5034119;28;20202;-87
2022/08/20 05:05:45;;;;;;;16.37;10.37;;;;;;;;;;5035137;28;20572;-85
2022/08/20 05:08:13;;;;;;;10.57;9.53;;;;;;;;;;5033000;28;20222;-87
2022/08/20 05:10:42;;;;;;;11.63;10.63;;;;;;;;;;5034154;28;20213;-87
2022/08/20 05:13:09;;;;;;;11.00;10.00;;;;;;;;;;5033239;28;20225;-87
2022/08/20 05:15:37;;;;;;;11.23;10.37;;;;;;;;;;5023881;28;20592;-83
2022/08/20 05:18:06;;;;;;;11.17;10.10;;;;;;;;;;5032662;28;20198;-88
2022/08/20 05:20:37;;;;;;;10.20;9.20;;;;;;;;;;5035037;28;20738;-85
2022/08/20 05:23:07;;;;;;;10.07;8.70;;;;;;;;;;5032973;28;20226;-93
2022/08/20 05:25:35;;;;;;;10.13;9.13;;;;;;;;;;5033843;28;20203;-90
2022/08/20 05:28:08;;;;;;;10.60;9.60;;;;;;;;;;5032755;28;20234;-91
2022/08/20 05:30:36;;;;;;;10.93;9.40;;;;;;;;;;5034926;28;20714;-91
2022/08/20 05:33:07;;;;;;;9.70;8.90;;;;;;;;;;5032686;28;20198;-91
2022/08/20 05:35:38;;;;;;;8.93;7.90;;;;;;;;;;5033929;28;20203;-91
2022/08/20 05:38:09;;;;;;;9.83;8.93;;;;;;;;;;5034530;28;20203;-91
2022/08/20 05:40:37;;;;;;;9.20;8.27;;;;;;;;;;5034786;28;20205;-92
2022/08/20 05:43:07;;;;;;;10.20;9.03;;;;;;;;;;5032708;28;20315;-91
2022/08/20 05:45:35;;;;;;;8.20;7.50;;;;;;;;;;5033354;28;20738;-91
2022/08/20 05:48:04;;;;;;;11.70;8.00;;;;;;;;;;5032699;28;20222;-91
2022/08/20 05:50:32;;;;;;;10.20;8.73;;;;;;;;;;5034465;28;20198;-91
2022/08/20 05:53:00;;;;;;;8.60;7.60;;;;;;;;;;5033728;28;20202;-91
2022/08/20 05:55:36;;;;;;;9.77;8.83;;;;;;;;;;5031874;28;20198;-91
2022/08/20 05:58:06;;;;;;;8.73;8.03;;;;;;;;;;5032934;28;20216;-91
2022/08/20 06:00:34;;;;;;;10.53;8.47;;;;;;;;;;5034439;28;20649;-91
2022/08/20 06:05:48;;;;;;;8.83;8.10;;;;;;;;;;5021224;28;20647;-91
2022/08/20 06:08:16;;;;;;;9.83;8.80;;;;;;;;;;5033188;28;20249;-87
2022/08/20 06:10:46;;;;;;;13.20;8.13;;;;;;;;;;5031974;28;20673;-86
2022/08/20 06:13:13;;;;;;;11.73;8.60;;;;;;;;;;5032782;28;20210;-91
2022/08/20 06:15:41;;;;;;;9.90;9.00;;;;;;;;;;5033785;28;20199;-91
2022/08/20 06:18:11;;;;;;;9.87;8.90;;;;;;;;;;5034583;28;20206;-90
2022/08/20 06:20:40;;;;;;;8.53;7.80;;;;;;;;;;5021813;28;20203;-92
2022/08/20 06:23:07;;;;;;;9.33;8.63;;;;;;;;;;5016989;28;20199;-91
2022/08/20 06:25:35;;;;;;;10.27;8.60;;;;;;;;;;5030743;28;20206;-89
2022/08/20 06:28:05;;;;;;;9.15;8.27;;;;;;;;;;5031381;28;20242;-88
2022/08/20 06:30:36;;;;;;;10.23;8.60;;;;;;;;;;5032643;28;20221;-89
2022/08/20 06:33:04;;;;;;;9.07;8.20;;;;;;;;;;5031731;28;20260;-89
2022/08/20 06:35:32;;;;;;;8.90;7.95;;;;;;;;;;5031758;28;20203;-88
2022/08/20 06:38:00;;;;;;;8.90;8.13;;;;;;;;;;5031239;28;20275;-88
2022/08/20 06:40:29;;;;;;;10.32;9.35;;;;;;;;;;5039522;28;20229;-88
2022/08/20 06:42:58;;;;;;;9.90;8.88;;;;;;;;;;5033071;28;20218;-89
2022/08/20 06:45:29;;;;;;;11.20;9.05;;;;;;;;;;5032496;28;20289;-90
2022/08/20 06:48:00;;;;;;;8.90;8.02;;;;;;;;;;5029149;28;20218;-88
2022/08/20 06:50:31;;;;;;;10.98;8.13;;;;;;;;;;5031140;28;20205;-89
2022/08/20 06:52:58;;;;;;;8.68;7.70;;;;;;;;;;5032653;28;20257;-89
2022/08/20 06:55:29;;;;;;;8.82;7.97;;;;;;;;;;5032594;28;20194;-90
2022/08/20 06:57:58;;;;;;;8.75;7.63;;;;;;;;;;5032808;28;20203;-89
2022/08/20 07:00:30;;;;;;;10.02;7.80;;;;;;;;;;5032702;28;20207;-89
2022/08/20 07:02:59;;;;;;;10.45;7.82;;;;;;;;;;5032009;28;20661;-90
2022/08/20 07:05:26;;;;;;;9.43;8.20;;;;;;;;;;5036646;28;20660;-89
2022/08/20 07:07:57;;;;;;;8.77;7.88;;;;;;;;;;5038670;28;20249;-90
2022/08/20 07:10:25;;;;;;;11.45;8.63;;;;;;;;;;5032342;28;20207;-89
2022/08/20 07:12:53;;;;;;;11.20;8.00;;;;;;;;;;5031864;28;20198;-90
2022/08/20 07:15:27;;;;;;;12.65;8.35;;;;;;;;;;5042391;28;20206;-89
2022/08/20 07:17:57;;;;;;;10.55;7.97;;;;;;;;;;5037794;28;20194;-88
2022/08/20 07:20:25;;;;;;;12.32;8.88;;;;;;;;;;5032698;28;20209;-89
2022/08/20 07:22:52;;;;;;;9.07;8.27;;;;;;;;;;5033619;28;20681;-89
2022/08/20 07:25:21;;;;;;;10.80;8.50;;;;;;;;;;5033694;28;20206;-89
2022/08/20 07:27:49;;;;;;;16.52;8.07;;;;;;;;;;5031884;28;20230;-88
2022/08/20 07:33:14;;;;;;;8.98;8.00;;;;;;;;;;5030894;28;20286;-88
2022/08/20 07:35:41;;;;;;;8.45;7.72;;;;;;;;;;5030884;28;20209;-88
2022/08/20 07:38:16;;;;;;;9.70;8.73;;;;;;;;;;5031415;28;20660;-89
2022/08/20 07:40:47;;;;;;;8.32;7.45;;;;;;;;;;5030876;28;20693;-88
2022/08/20 07:43:15;;;;;;;9.25;8.38;;;;;;;;;;5032540;28;20206;-89
2022/08/20 07:45:43;;;;;;;10.30;9.35;;;;;;;;;;5032279;28;20214;-88
2022/08/20 07:48:14;;;;;;;11.32;9.18;;;;;;;;;;5030383;28;20249;-87
2022/08/20 07:50:43;;;;;;;11.02;9.20;;;;;;;;;;5031536;28;20206;-83
2022/08/20 07:53:11;;;;;;;11.02;9.95;;;;;;;;;;5031013;28;20202;-88
2022/08/20 07:55:40;;;;;;;9.35;7.70;;;;;;;;;;5028556;28;20291;-84
2022/08/20 07:58:12;;;;;;;9.10;8.30;;;;;;;;;;5029287;28;20285;-84
2022/08/20 08:00:40;;;;;;;10.10;8.18;;;;;;;;;;5029282;28;20198;-84
2022/08/20 08:03:09;;;;;;;15.27;9.43;;;;;;;;;;5030084;28;20202;-86
2022/08/20 08:05:42;;;;;;;17.70;9.20;;;;;;;;;;5029494;28;20194;-85
2022/08/20 08:08:14;;;;;;;9.85;8.30;;;;;;;;;;5028772;28;20222;-85
2022/08/20 08:10:42;;;;;;;16.80;9.63;;;;;;;;;;5030598;28;20548;-84
2022/08/20 08:13:11;;;;;;;8.38;7.68;;;;;;;;;;5029900;28;20202;-85
2022/08/20 08:15:41;;;;;;;12.00;8.10;;;;;;;;;;5034101;28;20234;-84
2022/08/20 08:18:11;;;;;;;9.50;8.60;;;;;;;;;;5032343;28;20202;-82
2022/08/20 08:20:42;;;;;;;9.57;7.63;;;;;;;;;;5036060;28;20199;-86
2022/08/20 08:23:10;;;;;;;8.57;7.88;;;;;;;;;;5032914;28;20252;-88
2022/08/20 08:25:41;;;;;;;8.10;7.28;;;;;;;;;;5035486;28;20249;-86
2022/08/20 08:28:10;;;;;;;8.85;7.45;;;;;;;;;;5033903;28;20288;-86
2022/08/20 08:30:39;;;;;;;8.80;7.97;;;;;;;;;;5033149;28;20661;-85
2022/08/20 08:35:53;;;;;;;8.15;7.22;;;;;;;;;;5034092;28;20212;-88
2022/08/20 08:38:22;;;;;;;12.15;6.60;;;;;;;;;;5025759;28;20225;-89
2022/08/20 08:40:50;;;;;;;9.30;6.93;;;;;;;;;;5034029;28;20285;-88
2022/08/20 08:43:18;;;;;;;8.13;7.35;;;;;;;;;;5033391;28;20203;-84
2022/08/20 08:45:56;;;;;;;12.20;7.63;;;;;;;;;;5051564;28;20203;-90
2022/08/20 08:51:49;;;;;;;9.50;8.57;;;;;;;;;;5035302;28;20204;-84
2022/08/20 08:54:18;;;;;;;7.80;7.10;;;;;;;;;;5034879;28;20198;-84
2022/08/20 08:56:45;;;;;;;10.82;6.65;;;;;;;;;;5033321;28;20202;-84
2022/08/20 08:59:13;;;;;;;7.90;6.47;;;;;;;;;;5034615;28;20211;-84
2022/08/20 09:01:45;;;;;;;8.23;6.32;;;;;;;;;;5034006;28;20665;-84
2022/08/20 09:11:03;;;;;;;13.93;7.80;;;;;;;;;;5032277;28;20264;-84
2022/08/20 09:14:13;;;;;;;7.70;6.97;;;;;;;;;;5032003;28;20696;-84
2022/08/20 09:16:40;;;;;;;7.63;6.82;;;;;;;;;;5032359;28;20194;-84
2022/08/20 09:19:10;;;;;;;8.27;6.57;;;;;;;;;;5032609;28;20207;-83
2022/08/20 09:21:41;;;;;;;7.63;6.93;;;;;;;;;;5033608;28;20203;-84
2022/08/20 09:24:08;;;;;;;7.57;6.80;;;;;;;;;;5033415;28;20293;-85
2022/08/20 09:26:37;;;;;;;8.57;6.55;;;;;;;;;;5034401;28;20205;-84
2022/08/20 09:29:04;;;;;;;11.77;6.97;;;;;;;;;;5034035;28;20226;-84
2022/08/20 09:31:32;;;;;;;7.55;6.57;;;;;;;;;;5034196;28;20293;-85
2022/08/20 09:33:59;;;;;;;9.93;6.80;;;;;;;;;;5034040;28;20203;-84
2022/08/20 09:42:36;;;;;;;14.52;8.15;;;;;;;;;;5034342;28;20182;-83
2022/08/20 09:45:05;;;;;;;8.35;7.05;;;;;;;;;;5033209;28;20212;-85
2022/08/20 09:47:32;;;;;;;7.35;6.75;;;;;;;;;;5033892;28;20209;-84
2022/08/20 09:49:59;;;;;;;8.27;6.55;;;;;;;;;;5033580;28;20206;-83
2022/08/20 09:52:29;;;;;;;8.15;7.32;;;;;;;;;;5032463;28;20683;-84
2022/08/20 09:55:01;;;;;;;9.00;7.18;;;;;;;;;;5034215;28;20203;-84
2022/08/20 09:57:30;;;;;;;7.65;6.57;;;;;;;;;;5033656;28;20206;-84
2022/08/20 10:00:00;;;;;;;10.35;7.05;;;;;;;;;;5048628;28;20677;-84
2022/08/20 10:02:29;;;;;;;9.88;7.43;;;;;;;;;;5031883;28;20206;-83
2022/08/20 10:04:56;;;;;;;10.07;7.50;;;;;;;;;;5032843;28;20195;-83
2022/08/20 10:07:23;;;;;;;10.68;6.22;;;;;;;;;;5033451;28;20201;-83
2022/08/20 10:09:50;;;;;;;8.23;7.43;;;;;;;;;;5033295;28;20229;-84
2022/08/20 10:12:17;;;;;;;12.57;10.35;;;;;;;;;;5032627;28;20615;-85
2022/08/20 10:14:46;;;;;;;10.00;9.00;;;;;;;;;;5033293;28;20577;-84
2022/08/20 10:17:13;;;;;;;8.50;7.65;;;;;;;;;;5032226;28;20222;-87
2022/08/20 10:19:40;;;;;;;8.32;7.47;;;;;;;;;;5030542;28;20198;-84
2022/08/20 10:22:07;;;;;;;8.73;7.72;;;;;;;;;;5031606;28;20206;-85
2022/08/20 10:24:36;;;;;;;7.95;7.25;;;;;;;;;;5032361;28;20616;-84
2022/08/20 10:27:03;;;;;;;8.10;7.30;;;;;;;;;;5033549;28;20203;-86
2022/08/20 10:29:33;;;;;;;8.60;7.72;;;;;;;;;;5033609;28;20237;-85
2022/08/20 10:32:11;;;;;;;7.85;7.15;;;;;;;;;;5032015;28;20199;-87
2022/08/20 10:34:38;;;;;;;8.15;7.38;;;;;;;;;;5033017;28;20229;-84
2022/08/20 10:37:05;;;;;;;8.23;7.40;;;;;;;;;;5032829;28;20238;-84
2022/08/20 10:39:33;;;;;;;7.85;7.25;;;;;;;;;;5033060;28;20209;-84
2022/08/20 10:42:01;;;;;;;8.80;8.10;;;;;;;;;;5032951;28;20206;-87
2022/08/20 10:44:30;;;;;;;11.13;7.90;;;;;;;;;;5031555;28;20630;-85
2022/08/20 10:46:58;;;;;;;9.52;8.73;;;;;;;;;;5031152;28;20203;-85
2022/08/20 10:49:26;;;;;;;8.93;7.63;;;;;;;;;;5031307;28;20222;-83
2022/08/20 10:51:55;;;;;;;14.43;8.70;;;;;;;;;;5047895;28;20195;-83
2022/08/20 10:54:22;;;;;;;10.48;8.75;;;;;;;;;;5033366;28;20619;-82
2022/08/20 10:56:48;;;;;;;9.95;7.47;;;;;;;;;;5032894;28;20213;-82
2022/08/20 10:59:16;;;;;;;9.80;7.78;;;;;;;;;;5032424;28;20669;-81
2022/08/20 11:01:43;;;;;;;9.70;8.70;;;;;;;;;;5015420;28;20237;-82
2022/08/20 11:04:10;;;;;;;8.20;7.50;;;;;;;;;;5031306;28;20232;-81
2022/08/20 11:06:40;;;;;;;8.23;7.03;;;;;;;;;;5031218;28;20206;-81
2022/08/20 11:09:07;;;;;;;11.00;8.40;;;;;;;;;;5032412;28;20712;-84
2022/08/20 11:11:34;;;;;;;7.97;7.35;;;;;;;;;;5046286;28;20195;-83
2022/08/20 11:14:00;;;;;;;10.45;7.47;;;;;;;;;;5030739;28;20202;-80
2022/08/20 11:16:27;;;;;;;8.68;7.70;;;;;;;;;;5031544;28;20195;-82
2022/08/20 11:18:55;;;;;;;9.80;7.68;;;;;;;;;;5030068;28;20636;-81
2022/08/20 11:21:21;;;;;;;7.97;7.28;;;;;;;;;;5031946;28;20213;-82
2022/08/20 11:23:50;;;;;;;7.80;7.00;;;;;;;;;;5030964;28;20202;-82
2022/08/20 11:26:22;;;;;;;11.30;10.18;;;;;;;;;;5031970;28;20214;-82
2022/08/20 11:28:49;;;;;;;12.10;8.90;;;;;;;;;;5032289;28;20573;-82
2022/08/20 11:31:16;;;;;;;9.60;7.85;;;;;;;;;;5031011;28;20202;-82
2022/08/20 11:33:43;;;;;;;8.30;7.63;;;;;;;;;;5032511;28;20202;-82
2022/08/20 11:36:10;;;;;;;9.77;7.93;;;;;;;;;;5031989;28;20669;-82
2022/08/20 11:38:37;;;;;;;8.55;7.80;;;;;;;;;;5030525;28;20205;-82
2022/08/20 11:41:06;;;;;;;9.00;8.13;;;;;;;;;;5031780;28;20207;-82
2022/08/20 11:43:33;;;;;;;7.93;7.22;;;;;;;;;;5031589;28;20278;-83
2022/08/20 11:46:01;;;;;;;8.40;7.70;;;;;;;;;;5030591;28;20186;-82
2022/08/20 11:48:28;;;;;;;10.38;8.60;;;;;;;;;;5031112;28;20215;-82
2022/08/20 11:50:54;;;;;;;9.48;8.60;;;;;;;;;;5029078;28;20577;-82
2022/08/20 11:53:21;;;;;;;11.13;7.82;;;;;;;;;;5031715;28;20209;-81
2022/08/20 11:55:49;;;;;;;7.88;7.28;;;;;;;;;;5030688;28;20724;-82
2022/08/20 11:58:17;;;;;;;8.90;7.97;;;;;;;;;;5031124;28;20210;-87
2022/08/20 12:00:45;;;;;;;9.45;8.57;;;;;;;;;;5033105;28;20545;-85
2022/08/20 12:03:12;;;;;;;8.52;7.93;;;;;;;;;;5030693;28;20194;-86
2022/08/20 12:05:40;;;;;;;9.27;7.35;;;;;;;;;;5031652;28;20202;-85
2022/08/20 12:08:08;;;;;;;9.68;8.68;;;;;;;;;;5030843;28;20191;-87
2022/08/20 12:10:35;;;;;;;8.40;7.40;;;;;;;;;;5032746;28;20272;-80
2022/08/20 12:13:02;;;;;;;8.80;8.15;;;;;;;;;;5030160;28;20275;-80
2022/08/20 12:15:30;;;;;;;8.63;7.93;;;;;;;;;;5031095;28;20206;-80
2022/08/20 12:17:57;;;;;;;9.10;8.30;;;;;;;;;;5029931;28;20205;-81
2022/08/20 12:20:24;;;;;;;8.73;7.93;;;;;;;;;;5030731;28;20598;-80
2022/08/20 12:22:51;;;;;;;7.82;7.07;;;;;;;;;;5030075;28;20198;-81
2022/08/20 12:25:18;;;;;;;8.35;7.15;;;;;;;;;;5031243;28;20209;-81
2022/08/20 12:27:46;;;;;;;8.10;7.30;;;;;;;;;;5030917;28;20222;-80
2022/08/20 12:30:15;;;;;;;9.68;7.97;;;;;;;;;;5029481;28;20229;-80
2022/08/20 12:32:44;;;;;;;8.55;7.85;;;;;;;;;;5030879;28;20195;-80
2022/08/20 12:35:12;;;;;;;8.85;7.97;;;;;;;;;;5030047;28;20656;-80
2022/08/20 12:37:39;;;;;;;7.88;7.28;;;;;;;;;;5030515;28;20199;-81
2022/08/20 12:40:09;;;;;;;7.93;7.32;;;;;;;;;;5030359;28;20217;-80
2022/08/20 12:42:37;;;;;;;9.27;8.52;;;;;;;;;;5029833;28;20653;-80
2022/08/20 12:45:06;;;;;;;9.45;8.75;;;;;;;;;;5031113;28;20396;-80
2022/08/20 12:47:36;;;;;;;9.00;8.30;;;;;;;;;;5031765;28;20619;-80
2022/08/20 12:50:06;;;;;;;9.20;8.27;;;;;;;;;;5029462;28;20222;-80
2022/08/20 12:52:33;;;;;;;8.65;7.95;;;;;;;;;;5030271;28;20574;-80
2022/08/20 12:55:01;;;;;;;9.30;8.43;;;;;;;;;;5031008;28;20205;-80
2022/08/20 12:57:30;;;;;;;8.43;7.68;;;;;;;;;;5031089;28;20213;-80
2022/08/20 12:59:58;;;;;;;9.38;8.52;;;;;;;;;;5034383;28;20613;-80
2022/08/20 13:02:26;;;;;;;8.85;8.00;;;;;;;;;;5032297;28;20191;-80
2022/08/20 13:04:52;;;;;;;11.75;9.25;;;;;;;;;;5034361;28;20198;-80
2022/08/20 13:07:23;;;;;;;9.65;8.95;;;;;;;;;;5033373;28;20268;-79
2022/08/20 13:09:49;;;;;;;9.40;8.60;;;;;;;;;;5034553;28;20578;-80
2022/08/20 13:12:16;;;;;;;9.93;9.00;;;;;;;;;;5035158;28;20207;-80
2022/08/20 13:14:43;;;;;;;9.20;8.48;;;;;;;;;;5034338;28;20202;-80
2022/08/20 13:17:10;;;;;;;8.93;8.15;;;;;;;;;;5033628;28;20203;-81
2022/08/20 13:19:38;;;;;;;10.02;9.10;;;;;;;;;;5033932;28;20210;-80
2022/08/20 13:22:05;;;;;;;10.05;8.35;;;;;;;;;;5032970;28;20194;-80
2022/08/20 13:24:33;;;;;;;8.65;7.78;;;;;;;;;;5034856;28;20203;-80
2022/08/20 13:27:05;;;;;;;9.82;8.93;;;;;;;;;;5033252;28;20713;-80
2022/08/20 13:29:32;;;;;;;9.63;8.82;;;;;;;;;;5034376;28;20233;-80
2022/08/20 13:32:02;;;;;;;8.05;7.45;;;;;;;;;;5034538;28;20572;-80
2022/08/20 13:34:28;;;;;;;9.60;8.90;;;;;;;;;;5034614;28;20207;-80
2022/08/20 13:36:55;;;;;;;9.68;8.85;;;;;;;;;;5034554;28;20206;-80
2022/08/20 13:39:23;;;;;;;9.85;8.90;;;;;;;;;;5034373;28;20202;-80
2022/08/20 13:41:51;;;;;;;9.80;8.85;;;;;;;;;;5034458;28;20210;-80
2022/08/20 13:44:18;;;;;;;10.85;9.23;;;;;;;;;;5034363;28;20195;-80
2022/08/20 13:46:46;;;;;;;10.00;8.93;;;;;;;;;;5033736;28;20645;-80
2022/08/20 13:49:13;;;;;;;9.90;9.00;;;;;;;;;;5033998;28;20689;-79
2022/08/20 13:51:42;;;;;;;9.93;9.10;;;;;;;;;;5033680;28;20202;-79
2022/08/20 13:54:09;;;;;;;9.23;8.57;;;;;;;;;;5034174;28;20203;-79
2022/08/20 13:56:36;;;;;;;12.05;9.52;;;;;;;;;;5033658;28;20731;-79
2022/08/20 13:59:05;;;;;;;10.32;9.43;;;;;;;;;;5032318;28;20644;-80
2022/08/20 14:01:32;;;;;;;12.57;10.15;;;;;;;;;;5032389;28;20202;-80
2022/08/20 14:03:59;;;;;;;10.27;9.38;;;;;;;;;;5033466;28;20206;-79
2022/08/20 14:06:25;;;;;;;9.60;8.73;;;;;;;;;;5032907;28;20210;-80
2022/08/20 14:08:52;;;;;;;8.90;8.10;;;;;;;;;;5033448;28;20198;-81
2022/08/20 14:11:19;;;;;;;9.45;8.70;;;;;;;;;;5033221;28;20649;-80
2022/08/20 14:13:46;;;;;;;10.50;9.30;;;;;;;;;;5033379;28;20293;-79
2022/08/20 14:16:15;;;;;;;11.40;10.35;;;;;;;;;;5033296;28;20209;-80
2022/08/20 14:18:42;;;;;;;11.55;10.60;;;;;;;;;;5033132;28;20198;-79
2022/08/20 14:21:09;;;;;;;10.45;9.65;;;;;;;;;;5033274;28;20198;-80
2022/08/20 14:23:35;;;;;;;10.73;9.77;;;;;;;;;;5033131;28;20202;-79
2022/08/20 14:26:02;;;;;;;11.57;10.65;;;;;;;;;;5033264;28;20293;-80
2022/08/20 14:28:29;;;;;;;11.02;10.02;;;;;;;;;;5033258;28;20230;-79
2022/08/20 14:30:56;;;;;;;11.50;10.38;;;;;;;;;;5033072;28;20237;-79
2022/08/20 14:33:24;;;;;;;9.95;8.98;;;;;;;;;;5032991;28;20209;-79
2022/08/20 14:35:51;;;;;;;10.60;9.70;;;;;;;;;;5033137;28;20195;-80
2022/08/20 14:38:18;;;;;;;10.75;9.80;;;;;;;;;;5033207;28;20622;-79
2022/08/20 14:40:46;;;;;;;12.40;11.20;;;;;;;;;;5033002;28;20684;-79
2022/08/20 14:43:13;;;;;;;10.57;9.68;;;;;;;;;;5033388;28;20202;-80
2022/08/20 14:45:39;;;;;;;11.68;10.52;;;;;;;;;;5032705;28;20206;-79
2022/08/20 14:48:08;;;;;;;11.00;10.20;;;;;;;;;;5032707;28;20207;-79
2022/08/20 14:50:36;;;;;;;9.98;9.10;;;;;;;;;;5032542;28;20791;-79
2022/08/20 14:53:04;;;;;;;10.70;9.80;;;;;;;;;;5033026;28;20202;-80
2022/08/20 14:55:34;;;;;;;11.10;10.02;;;;;;;;;;5032681;28;20689;-79
2022/08/20 14:58:01;;;;;;;10.20;9.40;;;;;;;;;;5032678;28;20261;-80
2022/08/20 15:00:32;;;;;;;12.45;11.32;;;;;;;;;;5032477;28;20275;-80
2022/08/20 15:02:59;;;;;;;10.73;9.63;;;;;;;;;;5031615;28;20199;-80
2022/08/20 15:05:26;;;;;;;9.77;9.07;;;;;;;;;;5031561;28;20195;-80
2022/08/20 15:07:57;;;;;;;11.13;10.18;;;;;;;;;;5031768;28;20210;-80
2022/08/20 15:10:27;;;;;;;12.48;11.30;;;;;;;;;;5032149;28;20318;-81
2022/08/20 15:12:55;;;;;;;12.00;11.00;;;;;;;;;;5032304;28;20210;-82